sensor_id;sensor_type;location;lat;lon;timestamp;pressure;altitude;pressure_sealevel;temperature;humidity
34506;BME280;20748;42.632;23.198;2024-03-22T00:00:06;92024.59;;;3.57;72.34
34506;BME280;20748;42.632;23.198;2024-03-22T00:02:47;92022.50;;;3.54;72.92
34506;BME280;20748;42.632;23.198;2024-03-22T00:05:18;92027.16;;;3.57;73.15
34506;BME280;20748;42.632;23.198;2024-03-22T00:07:52;92025.56;;;3.41;72.40
34506;BME280;20748;42.632;23.198;2024-03-22T00:10:24;92022.16;;;3.25;73.14
34506;BME280;20748;42.632;23.198;2024-03-22T00:12:57;92025.50;;;3.25;73.09
34506;BME280;20748;42.632;23.198;2024-03-22T00:15:29;92017.22;;;3.23;73.44
34506;BME280;20748;42.632;23.198;2024-03-22T00:18:03;92016.19;;;3.19;73.36
34506;BME280;20748;42.632;23.198;2024-03-22T00:20:35;92022.09;;;3.14;72.70
34506;BME280;20748;42.632;23.198;2024-03-22T00:23:07;92020.28;;;3.09;73.70
34506;BME280;20748;42.632;23.198;2024-03-22T00:25:39;92012.78;;;3.08;73.67
34506;BME280;20748;42.632;23.198;2024-03-22T00:28:12;92013.59;;;3.14;74.37
34506;BME280;20748;42.632;23.198;2024-03-22T00:30:44;92011.47;;;3.00;74.19
34506;BME280;20748;42.632;23.198;2024-03-22T00:33:18;92014.78;;;2.95;73.64
34506;BME280;20748;42.632;23.198;2024-03-22T00:35:50;92009.38;;;2.92;74.03
34506;BME280;20748;42.632;23.198;2024-03-22T00:38:23;92014.25;;;2.88;74.72
34506;BME280;20748;42.632;23.198;2024-03-22T00:40:54;92015.28;;;2.87;74.15
34506;BME280;20748;42.632;23.198;2024-03-22T00:43:27;92007.00;;;2.85;74.41
34506;BME280;20748;42.632;23.198;2024-03-22T00:45:59;92010.38;;;2.86;74.44
34506;BME280;20748;42.632;23.198;2024-03-22T00:48:34;92010.34;;;2.80;74.05
34506;BME280;20748;42.632;23.198;2024-03-22T00:51:06;92013.13;;;2.74;74.43
34506;BME280;20748;42.632;23.198;2024-03-22T00:53:39;92009.75;;;2.68;74.60
34506;BME280;20748;42.632;23.198;2024-03-22T00:56:11;92010.75;;;2.62;74.45
34506;BME280;20748;42.632;23.198;2024-03-22T00:58:43;92017.38;;;2.52;75.07
34506;BME280;20748;42.632;23.198;2024-03-22T01:01:15;92012.75;;;2.54;74.67
34506;BME280;20748;42.632;23.198;2024-03-22T01:03:49;92010.44;;;2.53;74.20
34506;BME280;20748;42.632;23.198;2024-03-22T01:06:21;92020.44;;;2.49;73.70
34506;BME280;20748;42.632;23.198;2024-03-22T01:08:56;92017.59;;;2.46;74.48
34506;BME280;20748;42.632;23.198;2024-03-22T01:11:28;92019.38;;;2.45;74.33
34506;BME280;20748;42.632;23.198;2024-03-22T01:14:00;92023.47;;;2.41;75.14
34506;BME280;20748;42.632;23.198;2024-03-22T01:16:32;92022.13;;;2.33;74.75
34506;BME280;20748;42.632;23.198;2024-03-22T01:19:06;92024.69;;;2.28;74.92
34506;BME280;20748;42.632;23.198;2024-03-22T01:21:38;92021.06;;;2.29;74.13
34506;BME280;20748;42.632;23.198;2024-03-22T01:24:11;92020.03;;;2.30;72.10
34506;BME280;20748;42.632;23.198;2024-03-22T01:26:42;92023.94;;;2.33;71.04
34506;BME280;20748;42.632;23.198;2024-03-22T01:29:15;92022.66;;;2.35;70.44
34506;BME280;20748;42.632;23.198;2024-03-22T01:31:47;92019.53;;;2.33;69.90
34506;BME280;20748;42.632;23.198;2024-03-22T01:34:21;92020.09;;;2.35;69.70
34506;BME280;20748;42.632;23.198;2024-03-22T01:36:53;92019.81;;;2.32;68.87
34506;BME280;20748;42.632;23.198;2024-03-22T01:39:26;92018.31;;;2.41;68.28
34506;BME280;20748;42.632;23.198;2024-03-22T01:41:57;92021.72;;;2.47;67.68
34506;BME280;20748;42.632;23.198;2024-03-22T01:44:32;92019.91;;;2.47;68.01
34506;BME280;20748;42.632;23.198;2024-03-22T01:47:04;92027.91;;;2.51;67.76
34506;BME280;20748;42.632;23.198;2024-03-22T01:49:38;92015.56;;;2.53;68.26
34506;BME280;20748;42.632;23.198;2024-03-22T01:52:10;92015.03;;;2.51;70.22
34506;BME280;20748;42.632;23.198;2024-03-22T01:54:42;92019.41;;;2.50;71.25
34506;BME280;20748;42.632;23.198;2024-03-22T01:57:14;92021.47;;;2.48;71.66
34506;BME280;20748;42.632;23.198;2024-03-22T01:59:48;92018.91;;;2.48;71.83
34506;BME280;20748;42.632;23.198;2024-03-22T02:02:21;92022.44;;;2.42;71.00
34506;BME280;20748;42.632;23.198;2024-03-22T02:04:56;92020.59;;;2.37;70.88
34506;BME280;20748;42.632;23.198;2024-03-22T02:07:29;92016.25;;;2.38;71.72
34506;BME280;20748;42.632;23.198;2024-03-22T02:10:02;92015.69;;;2.36;72.52
34506;BME280;20748;42.632;23.198;2024-03-22T02:12:34;92018.75;;;2.27;72.36
34506;BME280;20748;42.632;23.198;2024-03-22T02:15:08;92014.84;;;2.25;71.84
34506;BME280;20748;42.632;23.198;2024-03-22T02:17:40;92012.81;;;2.27;72.16
34506;BME280;20748;42.632;23.198;2024-03-22T02:20:14;92014.84;;;2.25;72.30
34506;BME280;20748;42.632;23.198;2024-03-22T02:22:45;92021.50;;;2.21;73.15
34506;BME280;20748;42.632;23.198;2024-03-22T02:25:19;92025.00;;;2.09;73.78
34506;BME280;20748;42.632;23.198;2024-03-22T02:27:51;92022.94;;;2.06;74.36
34506;BME280;20748;42.632;23.198;2024-03-22T02:30:24;92021.06;;;1.96;74.75
34506;BME280;20748;42.632;23.198;2024-03-22T02:32:56;92029.75;;;1.90;75.83
34506;BME280;20748;42.632;23.198;2024-03-22T02:35:28;92022.84;;;1.68;76.73
34506;BME280;20748;42.632;23.198;2024-03-22T02:38:00;92032.50;;;1.83;76.66
34506;BME280;20748;42.632;23.198;2024-03-22T02:40:34;92027.88;;;1.85;76.71
34506;BME280;20748;42.632;23.198;2024-03-22T02:43:06;92035.13;;;1.88;76.44
34506;BME280;20748;42.632;23.198;2024-03-22T02:45:39;92029.16;;;1.83;76.26
34506;BME280;20748;42.632;23.198;2024-03-22T02:48:11;92027.09;;;1.80;75.88
34506;BME280;20748;42.632;23.198;2024-03-22T02:50:44;92036.34;;;1.81;75.90
34506;BME280;20748;42.632;23.198;2024-03-22T02:53:15;92038.63;;;1.77;76.24
34506;BME280;20748;42.632;23.198;2024-03-22T02:55:49;92030.81;;;1.67;76.74
34506;BME280;20748;42.632;23.198;2024-03-22T02:58:21;92036.75;;;1.67;76.89
34506;BME280;20748;42.632;23.198;2024-03-22T03:00:54;92032.84;;;1.65;76.93
34506;BME280;20748;42.632;23.198;2024-03-22T03:03:25;92039.06;;;1.69;76.82
34506;BME280;20748;42.632;23.198;2024-03-22T03:05:58;92044.75;;;1.71;77.02
34506;BME280;20748;42.632;23.198;2024-03-22T03:08:30;92044.41;;;1.62;77.17
34506;BME280;20748;42.632;23.198;2024-03-22T03:11:04;92046.44;;;1.60;76.92
34506;BME280;20748;42.632;23.198;2024-03-22T03:13:35;92050.56;;;1.61;77.04
34506;BME280;20748;42.632;23.198;2024-03-22T03:16:08;92051.03;;;1.58;77.10
34506;BME280;20748;42.632;23.198;2024-03-22T03:18:40;92047.69;;;1.57;77.44
34506;BME280;20748;42.632;23.198;2024-03-22T03:21:12;92042.50;;;1.52;77.26
34506;BME280;20748;42.632;23.198;2024-03-22T03:23:44;92045.88;;;1.58;77.50
34506;BME280;20748;42.632;23.198;2024-03-22T03:26:18;92041.41;;;1.48;77.92
34506;BME280;20748;42.632;23.198;2024-03-22T03:28:50;92046.56;;;1.48;77.88
34506;BME280;20748;42.632;23.198;2024-03-22T03:31:22;92048.09;;;1.49;78.46
34506;BME280;20748;42.632;23.198;2024-03-22T03:33:54;92050.88;;;1.42;77.92
34506;BME280;20748;42.632;23.198;2024-03-22T03:36:27;92047.38;;;1.31;78.49
34506;BME280;20748;42.632;23.198;2024-03-22T03:38:58;92050.03;;;1.37;79.33
34506;BME280;20748;42.632;23.198;2024-03-22T03:41:33;92044.81;;;1.31;79.73
34506;BME280;20748;42.632;23.198;2024-03-22T03:44:05;92056.34;;;1.29;79.88
34506;BME280;20748;42.632;23.198;2024-03-22T03:46:38;92057.59;;;1.26;80.18
34506;BME280;20748;42.632;23.198;2024-03-22T03:49:09;92053.19;;;1.22;80.42
34506;BME280;20748;42.632;23.198;2024-03-22T03:51:42;92058.81;;;1.18;80.23
34506;BME280;20748;42.632;23.198;2024-03-22T03:54:14;92064.72;;;1.19;80.58
34506;BME280;20748;42.632;23.198;2024-03-22T03:56:48;92065.50;;;1.19;80.86
34506;BME280;20748;42.632;23.198;2024-03-22T03:59:20;92061.94;;;1.20;81.04
34506;BME280;20748;42.632;23.198;2024-03-22T04:01:52;92062.38;;;1.17;80.78
34506;BME280;20748;42.632;23.198;2024-03-22T04:04:24;92063.63;;;1.15;81.05
34506;BME280;20748;42.632;23.198;2024-03-22T04:06:57;92062.22;;;1.02;82.18
34506;BME280;20748;42.632;23.198;2024-03-22T04:09:28;92073.53;;;1.06;82.42
34506;BME280;20748;42.632;23.198;2024-03-22T04:12:03;92075.66;;;1.09;81.99
34506;BME280;20748;42.632;23.198;2024-03-22T04:14:35;92073.81;;;1.04;81.66
34506;BME280;20748;42.632;23.198;2024-03-22T04:17:07;92078.31;;;0.97;81.82
34506;BME280;20748;42.632;23.198;2024-03-22T04:19:39;92071.41;;;0.98;82.40
34506;BME280;20748;42.632;23.198;2024-03-22T04:22:11;92075.44;;;0.93;82.88
34506;BME280;20748;42.632;23.198;2024-03-22T04:24:43;92076.38;;;0.87;83.31
34506;BME280;20748;42.632;23.198;2024-03-22T04:27:17;92077.09;;;0.83;83.93
34506;BME280;20748;42.632;23.198;2024-03-22T04:29:49;92079.38;;;0.79;84.41
34506;BME280;20748;42.632;23.198;2024-03-22T04:32:22;92078.88;;;0.82;84.56
34506;BME280;20748;42.632;23.198;2024-03-22T04:34:53;92083.78;;;0.84;84.16
34506;BME280;20748;42.632;23.198;2024-03-22T04:37:26;92093.91;;;0.90;83.92
34506;BME280;20748;42.632;23.198;2024-03-22T04:39:59;92088.28;;;0.93;82.50
34506;BME280;20748;42.632;23.198;2024-03-22T04:42:33;92090.16;;;0.98;81.37
34506;BME280;20748;42.632;23.198;2024-03-22T04:45:06;92092.97;;;0.97;82.34
34506;BME280;20748;42.632;23.198;2024-03-22T04:47:39;92096.00;;;0.93;84.18
34506;BME280;20748;42.632;23.198;2024-03-22T04:50:12;92089.69;;;1.01;84.53
34506;BME280;20748;42.632;23.198;2024-03-22T04:52:46;92094.91;;;1.06;84.29
34506;BME280;20748;42.632;23.198;2024-03-22T04:55:17;92100.88;;;1.12;83.36
34506;BME280;20748;42.632;23.198;2024-03-22T04:57:52;92101.97;;;1.16;82.38
34506;BME280;20748;42.632;23.198;2024-03-22T05:00:24;92105.63;;;1.20;81.59
34506;BME280;20748;42.632;23.198;2024-03-22T05:02:57;92098.75;;;1.26;80.92
34506;BME280;20748;42.632;23.198;2024-03-22T05:05:29;92100.63;;;1.31;80.88
34506;BME280;20748;42.632;23.198;2024-03-22T05:08:02;92105.03;;;1.36;78.76
34506;BME280;20748;42.632;23.198;2024-03-22T05:10:34;92107.91;;;1.39;77.11
34506;BME280;20748;42.632;23.198;2024-03-22T05:13:08;92108.03;;;1.50;76.07
34506;BME280;20748;42.632;23.198;2024-03-22T05:15:40;92110.97;;;1.58;74.86
34506;BME280;20748;42.632;23.198;2024-03-22T05:18:12;92111.84;;;1.69;73.79
34506;BME280;20748;42.632;23.198;2024-03-22T05:20:44;92110.66;;;1.77;73.23
34506;BME280;20748;42.632;23.198;2024-03-22T05:23:17;92118.00;;;1.91;72.37
34506;BME280;20748;42.632;23.198;2024-03-22T05:25:49;92123.72;;;1.98;71.73
34506;BME280;20748;42.632;23.198;2024-03-22T05:28:23;92118.47;;;2.10;71.38
34506;BME280;20748;42.632;23.198;2024-03-22T05:30:55;92128.81;;;2.15;70.46
34506;BME280;20748;42.632;23.198;2024-03-22T05:33:27;92116.28;;;2.24;70.49
34506;BME280;20748;42.632;23.198;2024-03-22T05:35:59;92122.53;;;2.33;69.61
34506;BME280;20748;42.632;23.198;2024-03-22T05:38:32;92120.56;;;2.40;68.93
34506;BME280;20748;42.632;23.198;2024-03-22T05:41:04;92128.13;;;2.52;67.82
34506;BME280;20748;42.632;23.198;2024-03-22T05:43:38;92123.84;;;2.63;67.79
34506;BME280;20748;42.632;23.198;2024-03-22T05:46:10;92129.56;;;2.71;67.19
34506;BME280;20748;42.632;23.198;2024-03-22T05:48:44;92129.91;;;2.79;67.31
34506;BME280;20748;42.632;23.198;2024-03-22T05:51:15;92129.72;;;2.91;66.42
34506;BME280;20748;42.632;23.198;2024-03-22T05:53:48;92134.88;;;2.91;66.42
34506;BME280;20748;42.632;23.198;2024-03-22T05:56:20;92132.13;;;3.03;66.04
34506;BME280;20748;42.632;23.198;2024-03-22T05:58:54;92136.53;;;3.08;66.01
34506;BME280;20748;42.632;23.198;2024-03-22T06:01:25;92135.56;;;3.19;66.03
34506;BME280;20748;42.632;23.198;2024-03-22T06:03:58;92140.25;;;3.28;65.45
34506;BME280;20748;42.632;23.198;2024-03-22T06:06:30;92137.25;;;3.41;65.63
34506;BME280;20748;42.632;23.198;2024-03-22T06:09:03;92148.59;;;3.45;64.26
34506;BME280;20748;42.632;23.198;2024-03-22T06:11:35;92140.66;;;3.52;64.29
34506;BME280;20748;42.632;23.198;2024-03-22T06:14:09;92140.69;;;3.57;64.05
34506;BME280;20748;42.632;23.198;2024-03-22T06:16:42;92135.81;;;3.66;63.87
34506;BME280;20748;42.632;23.198;2024-03-22T06:19:13;92138.94;;;3.73;63.81
34506;BME280;20748;42.632;23.198;2024-03-22T06:21:46;92136.38;;;3.79;63.48
34506;BME280;20748;42.632;23.198;2024-03-22T06:24:17;92142.34;;;3.89;64.37
34506;BME280;20748;42.632;23.198;2024-03-22T06:26:50;92142.94;;;4.02;63.11
34506;BME280;20748;42.632;23.198;2024-03-22T06:29:23;92149.69;;;4.08;62.65
34506;BME280;20748;42.632;23.198;2024-03-22T06:31:56;92140.66;;;4.21;62.05
34506;BME280;20748;42.632;23.198;2024-03-22T06:34:27;92150.22;;;4.31;61.54
34506;BME280;20748;42.632;23.198;2024-03-22T06:37:01;92144.06;;;4.48;61.35
34506;BME280;20748;42.632;23.198;2024-03-22T06:39:33;92143.03;;;4.49;60.22
34506;BME280;20748;42.632;23.198;2024-03-22T06:42:06;92146.66;;;4.53;60.15
34506;BME280;20748;42.632;23.198;2024-03-22T06:44:39;92152.09;;;4.62;60.20
34506;BME280;20748;42.632;23.198;2024-03-22T06:47:11;92155.75;;;4.71;60.40
34506;BME280;20748;42.632;23.198;2024-03-22T06:49:43;92157.03;;;4.84;59.99
34506;BME280;20748;42.632;23.198;2024-03-22T06:52:16;92159.63;;;4.94;59.76
34506;BME280;20748;42.632;23.198;2024-03-22T06:54:49;92158.59;;;5.06;60.89
34506;BME280;20748;42.632;23.198;2024-03-22T06:57:23;92167.09;;;5.17;60.34
34506;BME280;20748;42.632;23.198;2024-03-22T06:59:56;92157.81;;;5.26;60.53
34506;BME280;20748;42.632;23.198;2024-03-22T07:02:29;92169.44;;;5.39;58.89
34506;BME280;20748;42.632;23.198;2024-03-22T07:05:00;92167.34;;;5.41;58.94
34506;BME280;20748;42.632;23.198;2024-03-22T07:07:35;92168.34;;;5.61;60.11
34506;BME280;20748;42.632;23.198;2024-03-22T07:10:09;92166.78;;;5.75;59.20
34506;BME280;20748;42.632;23.198;2024-03-22T07:12:42;92169.09;;;5.77;59.32
34506;BME280;20748;42.632;23.198;2024-03-22T07:15:15;92170.34;;;5.85;58.90
34506;BME280;20748;42.632;23.198;2024-03-22T07:17:47;92177.59;;;5.93;57.17
34506;BME280;20748;42.632;23.198;2024-03-22T07:20:19;92174.19;;;6.08;57.17
34506;BME280;20748;42.632;23.198;2024-03-22T07:22:52;92173.88;;;6.20;57.42
34506;BME280;20748;42.632;23.198;2024-03-22T07:25:24;92178.53;;;6.23;57.41
34506;BME280;20748;42.632;23.198;2024-03-22T07:27:57;92172.06;;;6.26;56.53
34506;BME280;20748;42.632;23.198;2024-03-22T07:30:30;92184.63;;;6.48;56.81
34506;BME280;20748;42.632;23.198;2024-03-22T07:33:03;92180.22;;;6.54;55.68
34506;BME280;20748;42.632;23.198;2024-03-22T07:35:34;92178.59;;;6.63;55.61
34506;BME280;20748;42.632;23.198;2024-03-22T07:38:07;92179.31;;;6.74;55.01
34506;BME280;20748;42.632;23.198;2024-03-22T07:40:39;92177.97;;;6.82;55.46
34506;BME280;20748;42.632;23.198;2024-03-22T07:43:11;92186.72;;;6.91;55.92
34506;BME280;20748;42.632;23.198;2024-03-22T07:45:47;92181.97;;;7.04;55.37
34506;BME280;20748;42.632;23.198;2024-03-22T07:48:20;92184.44;;;7.19;54.23
34506;BME280;20748;42.632;23.198;2024-03-22T07:50:56;92186.53;;;7.17;54.56
34506;BME280;20748;42.632;23.198;2024-03-22T07:53:28;92187.97;;;7.34;54.69
34506;BME280;20748;42.632;23.198;2024-03-22T07:56:00;92186.56;;;7.47;53.54
34506;BME280;20748;42.632;23.198;2024-03-22T07:58:33;92196.84;;;7.57;53.32
34506;BME280;20748;42.632;23.198;2024-03-22T08:01:06;92194.09;;;7.73;53.37
34506;BME280;20748;42.632;23.198;2024-03-22T08:03:39;92199.41;;;7.87;53.49
34506;BME280;20748;42.632;23.198;2024-03-22T08:06:11;92195.44;;;7.95;53.51
34506;BME280;20748;42.632;23.198;2024-03-22T08:08:44;92202.53;;;7.89;52.73
34506;BME280;20748;42.632;23.198;2024-03-22T08:11:15;92192.75;;;8.05;51.42
34506;BME280;20748;42.632;23.198;2024-03-22T08:13:48;92194.13;;;8.22;52.57
34506;BME280;20748;42.632;23.198;2024-03-22T08:16:21;92199.91;;;8.38;51.19
34506;BME280;20748;42.632;23.198;2024-03-22T08:18:54;92200.28;;;8.50;51.96
34506;BME280;20748;42.632;23.198;2024-03-22T08:21:25;92194.41;;;8.64;50.46
34506;BME280;20748;42.632;23.198;2024-03-22T08:23:58;92189.06;;;8.74;51.32
34506;BME280;20748;42.632;23.198;2024-03-22T08:26:30;92184.41;;;8.71;49.67
34506;BME280;20748;42.632;23.198;2024-03-22T08:29:03;92178.09;;;8.58;50.43
34506;BME280;20748;42.632;23.198;2024-03-22T08:31:36;92182.41;;;8.87;50.01
34506;BME280;20748;42.632;23.198;2024-03-22T08:34:08;92184.75;;;9.03;48.09
34506;BME280;20748;42.632;23.198;2024-03-22T08:36:40;92185.91;;;8.96;47.76
34506;BME280;20748;42.632;23.198;2024-03-22T08:39:13;92178.06;;;9.16;48.49
34506;BME280;20748;42.632;23.198;2024-03-22T08:41:44;92188.03;;;9.27;48.05
34506;BME280;20748;42.632;23.198;2024-03-22T08:44:17;92195.84;;;9.27;46.82
34506;BME280;20748;42.632;23.198;2024-03-22T08:46:50;92194.94;;;9.37;46.79
34506;BME280;20748;42.632;23.198;2024-03-22T08:49:23;92195.59;;;9.76;45.77
34506;BME280;20748;42.632;23.198;2024-03-22T08:51:55;92197.34;;;9.95;47.38
34506;BME280;20748;42.632;23.198;2024-03-22T08:54:27;92202.19;;;10.02;46.52
34506;BME280;20748;42.632;23.198;2024-03-22T08:56:59;92195.72;;;9.99;45.09
34506;BME280;20748;42.632;23.198;2024-03-22T08:59:33;92200.34;;;10.16;47.47
34506;BME280;20748;42.632;23.198;2024-03-22T09:02:07;92195.91;;;10.17;44.75
34506;BME280;20748;42.632;23.198;2024-03-22T09:04:39;92193.50;;;10.06;44.76
34506;BME280;20748;42.632;23.198;2024-03-22T09:07:12;92199.06;;;9.86;44.42
34506;BME280;20748;42.632;23.198;2024-03-22T09:09:43;92198.59;;;9.98;44.66
34506;BME280;20748;42.632;23.198;2024-03-22T09:12:16;92191.66;;;10.21;44.68
34506;BME280;20748;42.632;23.198;2024-03-22T09:14:48;92185.53;;;10.40;43.38
34506;BME280;20748;42.632;23.198;2024-03-22T09:17:22;92181.78;;;10.60;43.55
34506;BME280;20748;42.632;23.198;2024-03-22T09:19:53;92179.88;;;10.52;43.46
34506;BME280;20748;42.632;23.198;2024-03-22T09:22:26;92181.09;;;10.68;43.76
34506;BME280;20748;42.632;23.198;2024-03-22T09:24:58;92185.41;;;10.87;43.11
34506;BME280;20748;42.632;23.198;2024-03-22T09:27:31;92181.81;;;10.83;41.19
34506;BME280;20748;42.632;23.198;2024-03-22T09:30:04;92177.16;;;10.94;41.44
34506;BME280;20748;42.632;23.198;2024-03-22T09:32:38;92170.03;;;11.08;41.23
34506;BME280;20748;42.632;23.198;2024-03-22T09:35:11;92165.00;;;11.35;41.17
34506;BME280;20748;42.632;23.198;2024-03-22T09:37:45;92164.38;;;11.61;40.82
34506;BME280;20748;42.632;23.198;2024-03-22T09:40:18;92175.34;;;11.40;40.43
34506;BME280;20748;42.632;23.198;2024-03-22T09:42:52;92176.88;;;11.41;41.21
34506;BME280;20748;42.632;23.198;2024-03-22T09:45:25;92176.13;;;11.40;39.38
34506;BME280;20748;42.632;23.198;2024-03-22T09:48:00;92173.00;;;11.38;40.07
34506;BME280;20748;42.632;23.198;2024-03-22T09:50:35;92183.72;;;11.60;40.69
34506;BME280;20748;42.632;23.198;2024-03-22T09:53:08;92163.66;;;11.69;40.19
34506;BME280;20748;42.632;23.198;2024-03-22T09:55:42;92164.50;;;11.55;39.89
34506;BME280;20748;42.632;23.198;2024-03-22T09:58:15;92159.66;;;11.72;40.54
34506;BME280;20748;42.632;23.198;2024-03-22T10:00:48;92168.19;;;11.54;39.79
34506;BME280;20748;42.632;23.198;2024-03-22T10:03:21;92175.25;;;11.54;40.67
34506;BME280;20748;42.632;23.198;2024-03-22T10:05:54;92166.91;;;11.75;39.62
34506;BME280;20748;42.632;23.198;2024-03-22T10:08:26;92164.00;;;11.76;39.15
34506;BME280;20748;42.632;23.198;2024-03-22T10:11:01;92163.69;;;11.78;38.89
34506;BME280;20748;42.632;23.198;2024-03-22T10:13:34;92163.94;;;11.99;39.68
34506;BME280;20748;42.632;23.198;2024-03-22T10:16:07;92162.91;;;12.09;38.59
34506;BME280;20748;42.632;23.198;2024-03-22T10:18:40;92166.50;;;12.22;38.12
34506;BME280;20748;42.632;23.198;2024-03-22T10:21:17;92160.38;;;11.95;39.33
34506;BME280;20748;42.632;23.198;2024-03-22T10:23:50;92162.94;;;12.18;39.73
34506;BME280;20748;42.632;23.198;2024-03-22T10:26:24;92153.38;;;12.04;40.29
34506;BME280;20748;42.632;23.198;2024-03-22T10:28:57;92148.06;;;12.36;40.29
34506;BME280;20748;42.632;23.198;2024-03-22T10:31:29;92149.13;;;12.26;39.50
34506;BME280;20748;42.632;23.198;2024-03-22T10:34:03;92146.34;;;12.31;39.24
34506;BME280;20748;42.632;23.198;2024-03-22T10:36:37;92140.56;;;12.87;37.39
34506;BME280;20748;42.632;23.198;2024-03-22T10:39:08;92137.94;;;12.70;37.13
34506;BME280;20748;42.632;23.198;2024-03-22T10:41:43;92133.47;;;13.06;37.14
34506;BME280;20748;42.632;23.198;2024-03-22T10:44:15;92143.66;;;12.98;38.13
34506;BME280;20748;42.632;23.198;2024-03-22T10:46:49;92133.44;;;13.23;37.49
34506;BME280;20748;42.632;23.198;2024-03-22T10:49:22;92124.69;;;13.10;37.00
34506;BME280;20748;42.632;23.198;2024-03-22T10:51:58;92115.94;;;12.88;38.34
34506;BME280;20748;42.632;23.198;2024-03-22T10:54:35;92122.69;;;12.81;38.97
34506;BME280;20748;42.632;23.198;2024-03-22T10:57:12;92122.22;;;13.23;39.22
34506;BME280;20748;42.632;23.198;2024-03-22T10:59:46;92125.69;;;13.71;37.36
34506;BME280;20748;42.632;23.198;2024-03-22T11:02:24;92122.66;;;13.90;36.96
34506;BME280;20748;42.632;23.198;2024-03-22T11:05:00;92112.31;;;14.24;36.04
34506;BME280;20748;42.632;23.198;2024-03-22T11:07:33;92111.97;;;14.56;35.95
34506;BME280;20748;42.632;23.198;2024-03-22T11:10:06;92111.72;;;14.70;34.50
34506;BME280;20748;42.632;23.198;2024-03-22T11:12:39;92116.59;;;15.01;34.97
34506;BME280;20748;42.632;23.198;2024-03-22T11:15:11;92111.78;;;15.03;33.14
34506;BME280;20748;42.632;23.198;2024-03-22T11:17:44;92108.03;;;15.26;33.71
34506;BME280;20748;42.632;23.198;2024-03-22T11:20:17;92104.59;;;15.59;33.91
34506;BME280;20748;42.632;23.198;2024-03-22T11:22:51;92100.69;;;15.78;34.17
34506;BME280;20748;42.632;23.198;2024-03-22T11:25:22;92096.69;;;15.93;31.71
34506;BME280;20748;42.632;23.198;2024-03-22T11:27:57;92096.31;;;15.82;32.40
34506;BME280;20748;42.632;23.198;2024-03-22T11:30:29;92101.91;;;15.34;32.44
34506;BME280;20748;42.632;23.198;2024-03-22T11:33:02;92085.91;;;15.27;33.13
34506;BME280;20748;42.632;23.198;2024-03-22T11:35:36;92100.50;;;15.03;32.47
34506;BME280;20748;42.632;23.198;2024-03-22T11:38:10;92099.00;;;15.48;32.29
34506;BME280;20748;42.632;23.198;2024-03-22T11:40:42;92092.06;;;14.97;33.62
34506;BME280;20748;42.632;23.198;2024-03-22T11:43:16;92089.81;;;15.08;32.29
34506;BME280;20748;42.632;23.198;2024-03-22T11:45:48;92093.22;;;15.21;31.45
34506;BME280;20748;42.632;23.198;2024-03-22T11:48:21;92076.59;;;15.17;32.79
34506;BME280;20748;42.632;23.198;2024-03-22T11:50:55;92095.19;;;15.58;32.66
34506;BME280;20748;42.632;23.198;2024-03-22T11:53:30;92088.47;;;15.48;32.24
34506;BME280;20748;42.632;23.198;2024-03-22T11:56:03;92077.38;;;15.30;31.82
34506;BME280;20748;42.632;23.198;2024-03-22T11:58:36;92073.22;;;15.29;32.60
34506;BME280;20748;42.632;23.198;2024-03-22T12:01:08;92067.25;;;15.66;33.60
34506;BME280;20748;42.632;23.198;2024-03-22T12:03:43;92060.00;;;15.04;30.86
34506;BME280;20748;42.632;23.198;2024-03-22T12:06:16;92061.25;;;15.19;32.53
34506;BME280;20748;42.632;23.198;2024-03-22T12:08:49;92068.59;;;15.13;33.60
34506;BME280;20748;42.632;23.198;2024-03-22T12:11:20;92067.53;;;14.93;33.92
34506;BME280;20748;42.632;23.198;2024-03-22T12:13:53;92060.78;;;14.62;33.35
34506;BME280;20748;42.632;23.198;2024-03-22T12:16:25;92063.56;;;14.87;33.26
34506;BME280;20748;42.632;23.198;2024-03-22T12:18:58;92059.72;;;15.18;32.08
34506;BME280;20748;42.632;23.198;2024-03-22T12:21:31;92062.88;;;15.70;32.39
34506;BME280;20748;42.632;23.198;2024-03-22T12:24:04;92064.84;;;15.73;32.69
34506;BME280;20748;42.632;23.198;2024-03-22T12:26:36;92052.19;;;15.41;30.62
34506;BME280;20748;42.632;23.198;2024-03-22T12:29:09;92049.75;;;15.24;31.39
34506;BME280;20748;42.632;23.198;2024-03-22T12:31:41;92045.31;;;15.37;33.74
34506;BME280;20748;42.632;23.198;2024-03-22T12:34:14;92050.75;;;15.32;32.29
34506;BME280;20748;42.632;23.198;2024-03-22T12:36:47;92048.22;;;15.23;33.37
34506;BME280;20748;42.632;23.198;2024-03-22T12:39:20;92044.13;;;15.59;32.74
34506;BME280;20748;42.632;23.198;2024-03-22T12:41:52;92040.09;;;15.87;31.66
34506;BME280;20748;42.632;23.198;2024-03-22T12:44:25;92047.16;;;15.36;31.24
34506;BME280;20748;42.632;23.198;2024-03-22T12:46:57;92036.78;;;15.65;32.24
34506;BME280;20748;42.632;23.198;2024-03-22T12:49:30;92042.47;;;15.79;30.46
34506;BME280;20748;42.632;23.198;2024-03-22T12:52:03;92033.63;;;16.09;31.25
34506;BME280;20748;42.632;23.198;2024-03-22T12:54:36;92036.91;;;16.06;30.78
34506;BME280;20748;42.632;23.198;2024-03-22T12:57:08;92035.50;;;15.12;31.61
34506;BME280;20748;42.632;23.198;2024-03-22T12:59:42;92032.56;;;15.26;31.65
34506;BME280;20748;42.632;23.198;2024-03-22T13:02:14;92029.34;;;15.79;31.82
34506;BME280;20748;42.632;23.198;2024-03-22T13:04:46;92026.09;;;16.36;32.20
34506;BME280;20748;42.632;23.198;2024-03-22T13:07:19;92023.28;;;16.57;30.55
34506;BME280;20748;42.632;23.198;2024-03-22T13:09:52;92022.84;;;15.89;30.00
34506;BME280;20748;42.632;23.198;2024-03-22T13:12:24;92021.66;;;15.49;31.16
34506;BME280;20748;42.632;23.198;2024-03-22T13:14:57;92025.66;;;15.93;30.84
34506;BME280;20748;42.632;23.198;2024-03-22T13:17:28;92022.72;;;16.35;30.55
34506;BME280;20748;42.632;23.198;2024-03-22T13:20:01;92026.97;;;16.40;28.92
34506;BME280;20748;42.632;23.198;2024-03-22T13:22:42;92019.44;;;16.26;29.28
34506;BME280;20748;42.632;23.198;2024-03-22T13:25:15;92023.97;;;16.54;30.38